createdAt,value
2017-04-04T00:01:08.981Z,10.57
2017-04-04T00:02:22.982Z,10.61
2017-04-04T00:03:36.872Z,10.55
2017-04-04T00:04:50.494Z,10.55
2017-04-04T00:06:05.098Z,10.58
2017-04-04T00:07:19.065Z,10.49
2017-04-04T00:08:33.003Z,10.46
2017-04-04T00:09:46.709Z,10.46
2017-04-04T00:11:00.904Z,10.48
2017-04-04T00:12:14.819Z,10.46
2017-04-04T00:13:28.386Z,10.33
2017-04-04T00:14:42.037Z,10.43
2017-04-04T00:15:55.569Z,10.33
2017-04-04T00:17:09.571Z,10.39
2017-04-04T00:18:23.505Z,10.42
2017-04-04T00:19:37.376Z,10.3
2017-04-04T00:20:50.918Z,10.31
2017-04-04T00:22:04.787Z,10.27
2017-04-04T00:23:18.872Z,10.24
2017-04-04T00:24:32.699Z,10.27
2017-04-04T00:25:46.205Z,10.21
2017-04-04T00:26:59.734Z,10.2
2017-04-04T00:28:13.654Z,10.24
2017-04-04T00:29:27.748Z,10.25
2017-04-04T00:30:41.957Z,10.23
2017-04-04T00:31:55.800Z,10.27
2017-04-04T00:33:09.694Z,10.2
2017-04-04T00:34:23.631Z,10.2
2017-04-04T00:35:37.959Z,10.2
2017-04-04T00:36:51.824Z,10.28
2017-04-04T00:38:05.354Z,10.18
2017-04-04T00:39:21.442Z,10.2
2017-04-04T00:40:35.005Z,10.18
2017-04-04T00:41:49.777Z,10.15
2017-04-04T00:43:03.598Z,10.12
2017-04-04T00:44:17.199Z,10.21
2017-04-04T00:45:30.743Z,10.17
2017-04-04T00:46:44.270Z,10.12
2017-04-04T00:47:57.924Z,10.09
2017-04-04T00:49:11.847Z,10.06
2017-04-04T00:50:25.437Z,10.09
2017-04-04T00:51:38.980Z,10.15
2017-04-04T00:52:52.828Z,10.13
2017-04-04T00:54:06.765Z,10.09
2017-04-04T00:55:20.954Z,10.02
2017-04-04T00:56:34.641Z,10.1
2017-04-04T00:57:48.198Z,10.06
2017-04-04T00:59:01.714Z,10.07
2017-04-04T01:00:15.373Z,10.07
2017-04-04T01:01:29.262Z,9.97
2017-04-04T01:02:42.791Z,9.95
2017-04-04T01:03:56.636Z,9.99
2017-04-04T01:05:10.210Z,9.88
2017-04-04T01:06:24.039Z,9.88
2017-04-04T01:07:37.930Z,9.88
2017-04-04T01:08:51.794Z,9.82
2017-04-04T01:10:05.291Z,9.81
2017-04-04T01:11:18.875Z,9.76
2017-04-04T01:12:32.420Z,9.8
2017-04-04T01:13:46.298Z,9.76
2017-04-04T01:14:59.869Z,9.76
2017-04-04T01:16:13.435Z,9.7
2017-04-04T01:17:26.954Z,9.63
2017-04-04T01:18:40.540Z,9.67
2017-04-04T01:19:54.350Z,9.69
2017-04-04T01:21:07.950Z,9.66
2017-04-04T01:22:21.470Z,9.63
2017-04-04T01:23:34.989Z,9.67
2017-04-04T01:24:48.551Z,9.69
2017-04-04T01:26:02.412Z,9.66
2017-04-04T01:27:16.405Z,9.56
2017-04-04T01:28:30.269Z,9.58
2017-04-04T01:29:44.055Z,9.55
2017-04-04T01:30:57.638Z,9.64
2017-04-04T01:32:11.523Z,9.56
2017-04-04T01:33:25.080Z,9.54
2017-04-04T01:34:38.632Z,9.58
2017-04-04T01:35:52.165Z,9.55
2017-04-04T01:37:06.129Z,9.52
2017-04-04T01:38:19.943Z,9.54
2017-04-04T01:39:33.583Z,9.54
2017-04-04T01:40:47.126Z,9.58
2017-04-04T01:42:00.640Z,9.51
2017-04-04T01:43:14.250Z,9.56
2017-04-04T01:44:28.069Z,9.55
2017-04-04T01:45:41.591Z,9.49
2017-04-04T01:46:55.343Z,9.55
2017-04-04T01:48:08.923Z,9.55
2017-04-04T01:49:22.793Z,9.56
2017-04-04T01:50:36.617Z,9.48
2017-04-04T01:51:50.184Z,9.45
2017-04-04T01:53:03.805Z,9.49
2017-04-04T01:54:17.369Z,9.49
2017-04-04T01:55:33.152Z,9.45
2017-04-04T01:56:47.010Z,9.51
2017-04-04T01:58:00.542Z,9.49
2017-04-04T01:59:14.240Z,9.45
2017-04-04T02:00:27.790Z,9.45
2017-04-04T02:01:41.373Z,9.49
2017-04-04T02:02:55.221Z,9.48
2017-04-04T02:04:09.161Z,9.49
2017-04-04T02:05:22.673Z,9.49
2017-04-04T02:06:36.385Z,9.48
2017-04-04T02:07:49.917Z,9.45
2017-04-04T02:09:04.206Z,9.3
2017-04-04T02:10:17.777Z,9.51
2017-04-04T02:11:31.334Z,9.33
2017-04-04T02:12:44.871Z,9.37
2017-04-04T02:13:58.394Z,9.33
2017-04-04T02:15:12.272Z,9.33
2017-04-04T02:16:26.261Z,9.37
2017-04-04T02:17:39.783Z,9.36
2017-04-04T02:18:53.378Z,9.36
2017-04-04T02:20:06.936Z,9.37
2017-04-04T02:21:20.739Z,9.4
2017-04-04T02:22:34.269Z,9.3
2017-04-04T02:23:47.813Z,9.3
2017-04-04T02:25:01.540Z,9.27
2017-04-04T02:26:15.373Z,9.34
2017-04-04T02:27:29.220Z,9.27
2017-04-04T02:28:42.764Z,9.26
2017-04-04T02:29:56.297Z,9.3
2017-04-04T02:31:09.865Z,9.26
2017-04-04T02:32:23.783Z,9.15
2017-04-04T02:33:37.630Z,9.13
2017-04-04T02:34:51.182Z,9.19
2017-04-04T02:36:04.818Z,9.03
2017-04-04T02:37:18.361Z,9.16
2017-04-04T02:38:32.005Z,9.11
2017-04-04T02:39:46.150Z,9.02
2017-04-04T02:40:59.756Z,9.05
2017-04-04T02:42:13.288Z,9.08
2017-04-04T02:43:26.867Z,9
2017-04-04T02:44:41.800Z,9.03
2017-04-04T02:45:55.622Z,9.08
2017-04-04T02:47:09.196Z,9.08
2017-04-04T02:48:22.717Z,8.99
2017-04-04T02:49:36.235Z,9
2017-04-04T02:50:49.794Z,9.02
2017-04-04T02:52:03.380Z,9.03
2017-04-04T02:53:16.923Z,9.05
2017-04-04T02:54:30.465Z,8.95
2017-04-04T02:55:43.992Z,9.02
2017-04-04T02:56:57.563Z,8.95
2017-04-04T02:58:11.406Z,8.93
2017-04-04T02:59:27.432Z,8.92
2017-04-04T03:00:40.962Z,8.92
2017-04-04T03:01:55.332Z,8.9
2017-04-04T03:03:10.165Z,8.92
2017-04-04T03:04:24.126Z,8.97
2017-04-04T03:05:38.229Z,8.96
2017-04-04T03:06:52.012Z,8.93
2017-04-04T03:08:06.248Z,8.93
2017-04-04T03:09:21.942Z,8.95
2017-04-04T03:10:37.032Z,8.92
2017-04-04T03:11:54.286Z,8.99
2017-04-04T03:13:08.191Z,8.93
2017-04-04T03:14:21.931Z,8.96
2017-04-04T03:15:36.412Z,8.87
2017-04-04T03:16:52.024Z,8.92
2017-04-04T03:18:06.581Z,8.9
2017-04-04T03:19:20.094Z,8.95
2017-04-04T03:20:33.624Z,8.82
2017-04-04T03:21:47.145Z,8.81
2017-04-04T03:23:01.011Z,8.77
2017-04-04T03:24:14.521Z,8.77
2017-04-04T03:25:28.054Z,8.78
2017-04-04T03:26:41.583Z,8.82
2017-04-04T03:27:55.155Z,8.77
2017-04-04T03:29:08.962Z,8.79
2017-04-04T03:30:22.483Z,8.75
2017-04-04T03:31:35.996Z,8.78
2017-04-04T03:32:49.732Z,8.71
2017-04-04T03:34:03.311Z,8.71
2017-04-04T03:35:17.133Z,8.66
2017-04-04T03:36:30.675Z,8.66
2017-04-04T03:37:44.235Z,8.71
2017-04-04T03:38:57.860Z,8.79
2017-04-04T03:40:11.398Z,8.75
2017-04-04T03:41:25.229Z,8.63
2017-04-04T03:42:38.891Z,8.63
2017-04-04T03:43:52.499Z,8.61
2017-04-04T03:45:06.027Z,8.69
2017-04-04T03:46:19.541Z,8.64
2017-04-04T03:47:33.351Z,8.59
2017-04-04T03:48:47.069Z,8.56
2017-04-04T03:50:00.797Z,8.61
2017-04-04T03:51:14.342Z,8.63
2017-04-04T03:52:27.903Z,8.66
2017-04-04T03:53:41.713Z,8.6
2017-04-04T03:54:55.277Z,8.6
2017-04-04T03:56:08.857Z,8.64
2017-04-04T03:57:22.732Z,8.63
2017-04-04T03:58:36.319Z,8.59
2017-04-04T03:59:50.210Z,8.6
2017-04-04T04:01:03.890Z,8.66
2017-04-04T04:02:17.478Z,8.64
2017-04-04T04:03:31.350Z,8.57
2017-04-04T04:04:46.170Z,8.6
2017-04-04T04:06:00.037Z,8.56
2017-04-04T04:07:13.579Z,8.54
2017-04-04T04:08:27.112Z,8.56
2017-04-04T04:09:40.639Z,8.54
2017-04-04T04:10:54.277Z,8.54
2017-04-04T04:12:08.153Z,8.57
2017-04-04T04:13:59.954Z,8.52
2017-04-04T04:15:13.520Z,8.5
2017-04-04T04:16:27.122Z,8.56
2017-04-04T04:17:41.003Z,8.6
2017-04-04T04:18:54.750Z,8.59
2017-04-04T04:20:08.916Z,8.56
2017-04-04T04:21:22.710Z,8.46
2017-04-04T04:22:37.183Z,8.5
2017-04-04T04:23:53.705Z,8.52
2017-04-04T04:25:08.109Z,8.44
2017-04-04T04:26:22.179Z,8.46
2017-04-04T04:27:35.859Z,8.44
2017-04-04T04:28:51.575Z,8.41
2017-04-04T04:30:05.703Z,8.41
2017-04-04T04:31:19.258Z,8.46
2017-04-04T04:32:32.849Z,8.45
2017-04-04T04:33:46.372Z,8.71
2017-04-04T04:34:59.906Z,8.59
2017-04-04T04:36:14.395Z,8.45
2017-04-04T04:37:27.967Z,8.45
2017-04-04T04:38:41.607Z,8.39
2017-04-04T04:39:55.454Z,8.35
2017-04-04T04:41:09.303Z,8.35
2017-04-04T04:42:23.167Z,8.41
2017-04-04T04:43:36.693Z,8.24
2017-04-04T04:44:50.520Z,8.28
2017-04-04T04:46:04.045Z,8.23
2017-04-04T04:47:17.566Z,8.2
2017-04-04T04:48:31.433Z,8.24
2017-04-04T04:49:44.966Z,8.24
2017-04-04T04:50:59.357Z,8.24
2017-04-04T04:52:12.868Z,8.21
2017-04-04T04:53:26.706Z,8.26
2017-04-04T04:54:40.550Z,8.2
2017-04-04T04:55:54.456Z,8.24
2017-04-04T04:57:08.064Z,8.24
2017-04-04T04:58:22.584Z,8.2
2017-04-04T04:59:36.119Z,8.21
2017-04-04T05:00:49.942Z,8.24
2017-04-04T05:02:03.450Z,8.23
2017-04-04T05:03:17.401Z,8.24
2017-04-04T05:04:31.002Z,8.21
2017-04-04T05:05:44.530Z,8.2
2017-04-04T05:06:58.362Z,8.21
2017-04-04T05:08:11.906Z,8.26
2017-04-04T05:09:25.548Z,8.32
2017-04-04T05:10:39.281Z,8.35
2017-04-04T05:11:52.847Z,8.32
2017-04-04T05:13:06.762Z,8.36
2017-04-04T05:14:20.400Z,8.31
2017-04-04T05:15:33.976Z,8.39
2017-04-04T05:16:47.949Z,8.41
2017-04-04T05:18:01.489Z,8.35
2017-04-04T05:19:15.755Z,8.46
2017-04-04T05:20:29.664Z,8.39
2017-04-04T05:21:43.945Z,8.39
2017-04-04T05:22:57.647Z,8.44
2017-04-04T05:24:11.363Z,8.49
2017-04-04T05:25:26.418Z,8.54
2017-04-04T05:26:40.047Z,8.49
2017-04-04T05:27:53.909Z,8.56
2017-04-04T05:29:07.542Z,8.53
2017-04-04T05:30:21.257Z,8.61
2017-04-04T05:31:34.910Z,8.53
2017-04-04T05:32:48.467Z,8.57
2017-04-04T05:34:02.054Z,8.59
2017-04-04T05:35:15.848Z,8.61
2017-04-04T05:36:29.791Z,8.6
2017-04-04T05:37:43.651Z,8.71
2017-04-04T05:38:57.211Z,8.74
2017-04-04T05:40:11.257Z,8.79
2017-04-04T05:41:26.446Z,8.87
2017-04-04T05:42:40.132Z,8.92
2017-04-04T05:43:53.980Z,9.03
2017-04-04T05:45:09.723Z,9.08
2017-04-04T05:46:23.324Z,9.12
2017-04-04T05:47:37.273Z,9.19
2017-04-04T05:48:51.427Z,9.12
2017-04-04T05:50:05.362Z,9.26
2017-04-04T05:51:19.028Z,9.15
2017-04-04T05:52:32.675Z,9.18
2017-04-04T05:53:46.518Z,9.31
2017-04-04T05:55:01.341Z,9.21
2017-04-04T05:56:15.211Z,9.21
2017-04-04T05:57:29.138Z,9.24
2017-04-04T05:58:42.689Z,9.24
2017-04-04T05:59:56.619Z,9.22
2017-04-04T06:01:10.187Z,9.22
2017-04-04T06:02:24.074Z,9.3
2017-04-04T06:03:37.608Z,9.29
2017-04-04T06:05:00.497Z,9.34
2017-04-04T06:06:14.168Z,9.33
2017-04-04T06:07:28.211Z,9.47
2017-04-04T06:08:42.735Z,9.34
2017-04-04T06:09:57.103Z,9.42
2017-04-04T06:11:11.345Z,9.39
2017-04-04T06:12:26.888Z,9.45
2017-04-04T06:13:40.812Z,9.45
2017-04-04T06:14:55.009Z,9.44
2017-04-04T06:16:09.253Z,9.44
2017-04-04T06:17:23.214Z,9.58
2017-04-04T06:18:36.839Z,9.47
2017-04-04T06:19:52.117Z,9.55
2017-04-04T06:21:05.952Z,9.7
2017-04-04T06:22:19.490Z,9.64
2017-04-04T06:23:33.088Z,9.63
2017-04-04T06:24:46.622Z,9.73
2017-04-04T06:26:00.140Z,9.8
2017-04-04T06:27:14.004Z,9.81
2017-04-04T06:28:29.174Z,9.81
2017-04-04T06:29:43.425Z,9.84
2017-04-04T06:30:56.958Z,9.82
2017-04-04T06:32:12.295Z,9.99
2017-04-04T06:33:26.268Z,10.03
2017-04-04T06:34:39.807Z,10.17
2017-04-04T06:35:53.663Z,10.21
2017-04-04T06:37:07.201Z,10.17
2017-04-04T06:38:20.721Z,10.31
2017-04-04T06:39:34.687Z,10.27
2017-04-04T06:40:48.608Z,10.21
2017-04-04T06:42:02.562Z,10.3
2017-04-04T06:43:16.451Z,10.42
2017-04-04T06:44:30.055Z,10.36
2017-04-04T06:45:44.426Z,10.28
2017-04-04T06:46:58.275Z,10.24
2017-04-04T06:48:11.794Z,10.45
2017-04-04T06:49:25.405Z,10.39
2017-04-04T06:50:38.958Z,10.36
2017-04-04T06:51:52.906Z,10.25
2017-04-04T06:53:06.452Z,10.3
2017-04-04T06:54:20.085Z,10.38
2017-04-04T06:55:33.675Z,10.36
2017-04-04T06:56:47.284Z,10.39
2017-04-04T06:58:01.436Z,10.3
2017-04-04T06:59:15.042Z,10.49
2017-04-04T07:00:28.625Z,10.55
2017-04-04T07:01:44.387Z,10.55
2017-04-04T07:02:58.034Z,10.64
2017-04-04T07:04:11.690Z,10.67
2017-04-04T07:05:25.338Z,10.65
2017-04-04T07:06:38.940Z,10.67
2017-04-04T07:07:52.483Z,10.69
2017-04-04T07:09:06.043Z,10.8
2017-04-04T07:10:19.927Z,10.75
2017-04-04T07:11:33.667Z,10.8
2017-04-04T07:12:47.233Z,10.72
2017-04-04T07:14:00.829Z,10.77
2017-04-04T07:15:14.374Z,10.94
2017-04-04T07:16:28.021Z,10.9
2017-04-04T07:17:41.615Z,10.9
2017-04-04T07:18:56.719Z,10.94
2017-04-04T07:20:10.387Z,10.97
2017-04-04T07:21:24.332Z,11.16
2017-04-04T07:22:38.664Z,11
2017-04-04T07:23:52.358Z,11.15
2017-04-04T07:25:06.221Z,11.07
2017-04-04T07:26:19.797Z,11.12
2017-04-04T07:27:33.554Z,11.19
2017-04-04T07:28:47.392Z,11.2
2017-04-04T07:30:01.130Z,11.22
2017-04-04T07:31:15.880Z,11.26
2017-04-04T07:32:29.507Z,11.27
2017-04-04T07:33:43.409Z,11.44
2017-04-04T07:34:57.104Z,11.44
2017-04-04T07:36:10.686Z,11.41
2017-04-04T07:37:25.105Z,11.41
2017-04-04T07:38:38.694Z,11.48
2017-04-04T07:39:52.326Z,11.3
2017-04-04T07:41:06.173Z,11.22
2017-04-04T07:42:20.456Z,11.18
2017-04-04T07:43:34.969Z,11.26
2017-04-04T07:44:49.173Z,11.31
2017-04-04T07:46:02.748Z,11.25
2017-04-04T07:47:17.275Z,11.16
2017-04-04T07:48:31.515Z,11.35
2017-04-04T07:49:45.069Z,11.41
2017-04-04T07:50:58.954Z,11.59
2017-04-04T07:52:12.824Z,11.67
2017-04-04T07:53:26.689Z,11.56
2017-04-04T07:54:40.244Z,11.58
2017-04-04T07:56:27.560Z,11.68
2017-04-04T07:57:42.559Z,11.81
2017-04-04T07:58:56.091Z,11.83
2017-04-04T08:00:11.987Z,11.74
2017-04-04T08:01:25.870Z,11.81
2017-04-04T08:02:39.687Z,11.89
2017-04-04T08:03:53.825Z,11.99
2017-04-04T08:05:07.412Z,12.12
2017-04-04T08:06:21.014Z,12.1
2017-04-04T08:07:34.903Z,12.18
2017-04-04T08:08:48.574Z,12.18
2017-04-04T08:10:02.721Z,12.15
2017-04-04T08:11:16.239Z,12.12
2017-04-04T08:12:29.775Z,12.29
2017-04-04T08:13:43.350Z,12.18
2017-04-04T08:14:57.272Z,12.17
2017-04-04T08:16:10.817Z,12.28
2017-04-04T08:17:24.365Z,12.3
2017-04-04T08:18:40.507Z,12.28
2017-04-04T08:19:54.036Z,12.43
2017-04-04T08:21:07.757Z,12.45
2017-04-04T08:22:22.213Z,12.39
2017-04-04T08:23:35.797Z,12.4
2017-04-04T08:24:49.326Z,12.45
2017-04-04T08:26:03.806Z,12.55
2017-04-04T08:27:17.659Z,12.54
2017-04-04T08:28:32.183Z,12.63
2017-04-04T08:29:46.756Z,12.66
2017-04-04T08:31:00.351Z,12.78
2017-04-04T08:32:14.478Z,12.83
2017-04-04T08:33:28.290Z,12.8
2017-04-04T08:34:42.473Z,12.86
2017-04-04T08:35:56.125Z,12.83
2017-04-04T08:37:09.666Z,12.98
2017-04-04T08:38:23.211Z,13.01
2017-04-04T08:39:37.577Z,12.98
2017-04-04T08:40:54.448Z,12.98
2017-04-04T08:42:08.043Z,12.94
2017-04-04T08:43:21.565Z,13.01
2017-04-04T08:44:36.199Z,12.84
2017-04-04T08:45:49.870Z,12.76
2017-04-04T08:47:04.046Z,12.8
2017-04-04T08:48:17.598Z,12.98
2017-04-04T08:49:31.384Z,12.98
2017-04-04T08:50:44.940Z,12.99
2017-04-04T08:51:58.819Z,13.02
2017-04-04T08:53:12.859Z,13.01
2017-04-04T08:54:26.742Z,13.09
2017-04-04T08:55:40.409Z,13.09
2017-04-04T08:56:53.958Z,13.16
2017-04-04T08:58:08.934Z,13.11
2017-04-04T08:59:22.920Z,13.09
2017-04-04T09:00:36.822Z,13.11
2017-04-04T09:01:51.034Z,13.11
2017-04-04T09:03:04.611Z,13.11
2017-04-04T09:04:18.742Z,13.19
2017-04-04T09:05:32.750Z,13.37
2017-04-04T09:06:52.577Z,13.26
2017-04-04T09:08:06.125Z,13.3
2017-04-04T09:09:20.275Z,13.28
2017-04-04T09:10:33.870Z,13.31
2017-04-04T09:11:47.773Z,13.31
2017-04-04T09:13:01.310Z,13.42
2017-04-04T09:14:14.830Z,13.46
2017-04-04T09:15:28.357Z,13.57
2017-04-04T09:16:41.938Z,13.55
2017-04-04T09:17:55.750Z,13.6
2017-04-04T09:19:09.389Z,13.42
2017-04-04T09:20:23.582Z,13.55
2017-04-04T09:21:37.159Z,13.64
2017-04-04T09:22:50.949Z,13.64
2017-04-04T09:24:06.081Z,13.62
2017-04-04T09:25:22.635Z,13.68
2017-04-04T09:26:38.915Z,13.71
2017-04-04T09:27:56.806Z,13.7
2017-04-04T09:29:12.919Z,13.73
2017-04-04T09:30:30.504Z,13.61
2017-04-04T09:31:46.386Z,13.64
2017-04-04T09:33:02.669Z,13.7
2017-04-04T09:34:19.666Z,13.71
2017-04-04T09:35:37.337Z,13.79
2017-04-04T09:36:52.647Z,13.83
2017-04-04T09:38:08.374Z,13.89
2017-04-04T09:39:24.918Z,13.89
2017-04-04T09:40:41.904Z,13.79
2017-04-04T09:41:56.470Z,13.82
2017-04-04T09:43:11.961Z,13.86
2017-04-04T09:44:30.176Z,13.89
2017-04-04T09:45:46.523Z,13.89
2017-04-04T09:47:02.678Z,13.87
2017-04-04T09:48:18.664Z,13.94
2017-04-04T09:49:36.483Z,14
2017-04-04T09:50:51.353Z,14.07
2017-04-04T09:52:07.699Z,14.18
2017-04-04T09:53:22.655Z,14.15
2017-04-04T09:54:38.888Z,14.18
2017-04-04T09:55:54.086Z,14.31
2017-04-04T09:57:13.140Z,14.28
2017-04-04T09:58:28.892Z,14.23
2017-04-04T09:59:44.592Z,14.18
2017-04-04T10:01:00.728Z,14.22
2017-04-04T10:02:32.046Z,14.28
2017-04-04T10:03:47.757Z,14.37
2017-04-04T10:05:03.475Z,14.2
2017-04-04T10:06:21.075Z,14.16
2017-04-04T10:07:36.480Z,14.18
2017-04-04T10:08:52.128Z,14.18
2017-04-04T10:10:07.167Z,14.13
2017-04-04T10:11:26.032Z,14.22
2017-04-04T10:12:44.447Z,14.23
2017-04-04T10:14:00.163Z,14.36
2017-04-04T10:15:18.188Z,14.3
2017-04-04T10:16:33.202Z,14.31
2017-04-04T10:17:48.803Z,14.25
2017-04-04T10:19:05.067Z,14.38
2017-04-04T10:20:20.873Z,14.38
2017-04-04T10:21:38.616Z,14.36
2017-04-04T10:22:52.752Z,14.55
2017-04-04T10:24:06.931Z,14.56
2017-04-04T10:25:21.021Z,14.55
2017-04-04T10:26:34.591Z,14.67
2017-04-04T10:27:48.270Z,14.71
2017-04-04T10:29:01.799Z,14.86
2017-04-04T10:30:16.866Z,14.92
2017-04-04T10:31:31.778Z,14.94
2017-04-04T10:32:47.201Z,15.07
2017-04-04T10:34:01.361Z,14.97
2017-04-04T10:35:14.917Z,14.89
2017-04-04T10:36:29.371Z,14.81
2017-04-04T10:37:43.571Z,14.87
2017-04-04T10:38:57.205Z,14.81
2017-04-04T10:40:12.128Z,15.04
2017-04-04T10:41:25.665Z,15.14
2017-04-04T10:42:39.727Z,15.29
2017-04-04T10:44:08.433Z,15.12
2017-04-04T10:45:22.327Z,15.12
2017-04-04T10:46:35.865Z,15.1
2017-04-04T10:47:49.431Z,15.22
2017-04-04T10:49:03.009Z,15.19
2017-04-04T10:50:16.761Z,15.12
2017-04-04T10:51:31.778Z,15.15
2017-04-04T10:52:46.262Z,15.11
2017-04-04T10:54:02.051Z,15.17
2017-04-04T10:55:16.378Z,15.25
2017-04-04T10:56:29.929Z,15.23
2017-04-04T10:57:44.329Z,15.26
2017-04-04T10:58:57.917Z,15.41
2017-04-04T11:00:11.936Z,15.44
2017-04-04T11:01:26.114Z,15.43
2017-04-04T11:02:40.123Z,15.41
2017-04-04T11:03:56.689Z,15.45
2017-04-04T11:05:12.033Z,15.54
2017-04-04T11:06:25.945Z,15.57
2017-04-04T11:07:39.771Z,15.52
2017-04-04T11:08:53.546Z,15.44
2017-04-04T11:10:07.164Z,15.27
2017-04-04T11:11:20.782Z,15.08
2017-04-04T11:12:34.354Z,15.12
2017-04-04T11:13:49.573Z,15.29
2017-04-04T11:15:04.546Z,15.3
2017-04-04T11:16:18.175Z,15.33
2017-04-04T11:17:31.794Z,15.43
2017-04-04T11:18:47.089Z,15.39
2017-04-04T11:20:00.669Z,15.25
2017-04-04T11:21:14.569Z,15.33
2017-04-04T11:22:29.658Z,15.47
2017-04-04T11:23:43.185Z,15.52
2017-04-04T11:24:57.048Z,15.52
2017-04-04T11:26:11.299Z,15.59
2017-04-04T11:27:25.205Z,15.59
2017-04-04T11:28:38.814Z,15.72
2017-04-04T11:29:52.717Z,15.78
2017-04-04T11:31:06.616Z,15.75
2017-04-04T11:32:20.542Z,15.76
2017-04-04T11:33:34.471Z,15.76
2017-04-04T11:34:48.371Z,15.73
2017-04-04T11:36:01.952Z,15.78
2017-04-04T11:37:15.730Z,15.78
2017-04-04T11:38:29.903Z,15.78
2017-04-04T11:39:56.267Z,15.83
2017-04-04T11:41:09.878Z,15.88
2017-04-04T11:42:23.465Z,15.92
2017-04-04T11:43:37.016Z,15.87
2017-04-04T11:44:51.187Z,15.91
2017-04-04T11:46:05.077Z,16
2017-04-04T11:47:18.681Z,15.8
2017-04-04T11:48:32.229Z,15.84
2017-04-04T11:49:45.802Z,16.03
2017-04-04T11:50:59.645Z,16.03
2017-04-04T11:52:13.277Z,16.08
2017-04-04T11:53:26.823Z,16.03
2017-04-04T11:54:40.384Z,15.99
2017-04-04T11:55:57.343Z,16.09
2017-04-04T11:57:11.549Z,15.96
2017-04-04T11:58:25.102Z,15.99
2017-04-04T11:59:40.114Z,16.02
2017-04-04T12:00:53.983Z,16.05
2017-04-04T12:02:07.672Z,16.1
2017-04-04T12:03:21.514Z,16.13
2017-04-04T12:04:35.101Z,16.08
2017-04-04T12:05:48.933Z,16.12
2017-04-04T12:07:21.744Z,16.12
2017-04-04T12:08:36.728Z,16.24
2017-04-04T12:09:50.295Z,16.18
2017-04-04T12:11:06.467Z,16.18
2017-04-04T12:12:20.670Z,16.21
2017-04-04T12:13:34.850Z,16.34
2017-04-04T12:14:48.697Z,16.47
2017-04-04T12:16:03.037Z,16.54
2017-04-04T12:17:16.582Z,16.61
2017-04-04T12:18:30.693Z,16.57
2017-04-04T12:19:44.232Z,16.46
2017-04-04T12:20:58.068Z,16.46
2017-04-04T12:22:12.301Z,16.51
2017-04-04T12:23:27.465Z,16.49
2017-04-04T12:24:41.025Z,16.47
2017-04-04T12:25:54.869Z,16.46
2017-04-04T12:27:09.145Z,16.41
2017-04-04T12:28:24.144Z,16.54
2017-04-04T12:29:37.710Z,16.37
2017-04-04T12:30:51.265Z,16.37
2017-04-04T12:32:05.041Z,16.46
2017-04-04T12:33:24.962Z,16.55
2017-04-04T12:34:39.191Z,16.54
2017-04-04T12:35:53.311Z,16.46
2017-04-04T12:37:08.029Z,16.47
2017-04-04T12:38:22.699Z,16.46
2017-04-04T12:39:36.981Z,16.46
2017-04-04T12:40:51.608Z,16.51
2017-04-04T12:42:05.791Z,16.49
2017-04-04T12:43:20.629Z,16.65
2017-04-04T12:44:34.639Z,16.69
2017-04-04T12:45:48.927Z,16.79
2017-04-04T12:47:03.807Z,16.72
2017-04-04T12:48:18.102Z,16.69
2017-04-04T12:49:32.179Z,16.79
2017-04-04T12:50:46.456Z,16.91
2017-04-04T12:52:00.744Z,16.82
2017-04-04T12:53:15.399Z,16.92
2017-04-04T12:54:30.477Z,16.89
2017-04-04T12:55:45.128Z,16.92
2017-04-04T12:56:59.090Z,16.95
2017-04-04T12:58:13.019Z,16.83
2017-04-04T12:59:27.696Z,16.83
2017-04-04T13:00:41.773Z,16.65
2017-04-04T13:01:56.188Z,16.58
2017-04-04T13:03:11.061Z,16.39
2017-04-04T13:04:26.225Z,16.18
2017-04-04T13:05:41.208Z,16.17
2017-04-04T13:06:55.489Z,16.18
2017-04-04T13:08:10.211Z,16.21
2017-04-04T13:09:24.820Z,16.22
2017-04-04T13:10:39.482Z,16.25
2017-04-04T13:11:54.744Z,16.29
2017-04-04T13:13:09.062Z,16.43
2017-04-04T13:14:23.288Z,16.36
2017-04-04T13:15:37.186Z,16.47
2017-04-04T13:16:51.168Z,16.47
2017-04-04T13:18:06.137Z,16.43
2017-04-04T13:19:20.796Z,16.55
2017-04-04T13:20:34.804Z,16.64
2017-04-04T13:21:48.825Z,16.68
2017-04-04T13:23:03.073Z,16.69
2017-04-04T13:24:17.802Z,16.73
2017-04-04T13:25:32.366Z,16.73
2017-04-04T13:26:47.042Z,16.72
2017-04-04T13:28:04.139Z,16.83
2017-04-04T13:29:18.613Z,16.72
2017-04-04T13:30:34.119Z,16.72
2017-04-04T13:31:49.051Z,16.76
2017-04-04T13:33:03.738Z,16.76
2017-04-04T13:34:17.990Z,16.72
2017-04-04T13:35:31.954Z,16.87
2017-04-04T13:36:46.555Z,16.91
2017-04-04T13:38:00.597Z,16.86
2017-04-04T13:39:14.542Z,16.87
2017-04-04T13:40:28.546Z,16.95
2017-04-04T13:41:42.860Z,16.84
2017-04-04T13:42:57.748Z,16.84
2017-04-04T13:44:11.953Z,16.86
2017-04-04T13:45:26.265Z,16.82
2017-04-04T13:46:40.271Z,16.8
2017-04-04T13:47:54.542Z,16.86
2017-04-04T13:49:09.464Z,16.91
2017-04-04T13:50:23.536Z,16.87
2017-04-04T13:51:38.202Z,16.89
2017-04-04T13:52:52.454Z,16.98
2017-04-04T13:54:07.467Z,16.99
2017-04-04T13:55:21.732Z,16.99
2017-04-04T13:56:36.460Z,17.04
2017-04-04T13:57:50.427Z,16.87
2017-04-04T13:59:04.937Z,17.01
2017-04-04T14:00:20.266Z,17.05
2017-04-04T14:01:34.605Z,16.92
2017-04-04T14:02:49.073Z,16.92
2017-04-04T14:04:02.983Z,16.95
2017-04-04T14:05:17.378Z,16.89
2017-04-04T14:06:31.373Z,16.86
2017-04-04T14:07:46.293Z,16.89
2017-04-04T14:09:00.214Z,16.94
2017-04-04T14:10:14.656Z,16.92
2017-04-04T14:11:28.961Z,16.94
2017-04-04T14:12:42.915Z,17.01
2017-04-04T14:13:56.891Z,16.84
2017-04-04T14:15:11.356Z,16.91
2017-04-04T14:16:25.923Z,16.86
2017-04-04T14:17:39.852Z,16.83
2017-04-04T14:18:54.142Z,16.86
2017-04-04T14:20:08.680Z,16.89
2017-04-04T14:21:23.688Z,16.76
2017-04-04T14:22:37.714Z,16.69
2017-04-04T14:23:52.354Z,16.69
2017-04-04T14:25:07.114Z,16.72
2017-04-04T14:26:21.580Z,16.65
2017-04-04T14:27:35.594Z,16.76
2017-04-04T14:28:50.374Z,16.72
2017-04-04T14:30:04.647Z,16.83
2017-04-04T14:31:19.379Z,16.79
2017-04-04T14:32:36.158Z,16.89
2017-04-04T14:33:50.948Z,16.89
2017-04-04T14:35:06.132Z,16.99
2017-04-04T14:36:20.774Z,16.87
2017-04-04T14:37:35.438Z,16.98
2017-04-04T14:38:50.181Z,16.89
2017-04-04T14:40:05.301Z,17.01
2017-04-04T14:41:19.595Z,17.14
2017-04-04T14:42:33.532Z,17.13
2017-04-04T14:43:47.612Z,17.17
2017-04-04T14:45:04.499Z,17.19
2017-04-04T14:46:18.539Z,17.07
2017-04-04T14:47:32.453Z,17.04
2017-04-04T14:48:47.302Z,16.99
2017-04-04T14:50:01.257Z,16.98
2017-04-04T14:51:15.608Z,17.01
2017-04-04T14:52:29.779Z,16.94
2017-04-04T14:53:43.810Z,17.02
2017-04-04T14:54:58.431Z,17.02
2017-04-04T14:56:16.087Z,16.94
2017-04-04T14:57:30.971Z,16.97
2017-04-04T14:58:46.575Z,16.87
2017-04-04T15:00:01.011Z,16.86
2017-04-04T15:01:18.133Z,16.91
2017-04-04T15:02:32.534Z,16.97
2017-04-04T15:03:47.674Z,16.99
2017-04-04T15:05:02.330Z,17.07
2017-04-04T15:06:17.000Z,17.02
2017-04-04T15:07:32.022Z,17.02
2017-04-04T15:08:46.780Z,17.09
2017-04-04T15:10:03.083Z,17.14
2017-04-04T15:11:22.102Z,17.14
2017-04-04T15:12:36.428Z,17.23
2017-04-04T15:13:50.834Z,17.27
2017-04-04T15:15:06.602Z,17.23
2017-04-04T15:16:22.745Z,17.28
2017-04-04T15:17:37.014Z,17.34
2017-04-04T15:18:54.254Z,17.32
2017-04-04T15:20:12.218Z,17.16
2017-04-04T15:21:30.688Z,17.27
2017-04-04T15:22:56.252Z,17.19
2017-04-04T15:24:17.161Z,17.23
2017-04-04T15:25:39.944Z,17.3
2017-04-04T15:27:08.474Z,17.38
2017-04-04T15:28:27.254Z,17.27
2017-04-04T15:29:42.533Z,17.32
2017-04-04T15:30:57.322Z,17.23
2017-04-04T15:32:11.277Z,17.2
2017-04-04T15:33:25.714Z,17.17
2017-04-04T15:34:42.588Z,17.01
2017-04-04T15:35:58.005Z,17.12
2017-04-04T15:37:13.682Z,17.22
2017-04-04T15:38:28.975Z,17.14
2017-04-04T15:39:45.284Z,17.12
2017-04-04T15:41:00.667Z,17.1
2017-04-04T15:42:17.838Z,17.07
2017-04-04T15:43:33.268Z,17.02
2017-04-04T15:44:49.293Z,17.07
2017-04-04T15:46:04.725Z,17.01
2017-04-04T15:47:22.976Z,17.04
2017-04-04T15:48:42.989Z,17.05
2017-04-04T15:49:59.277Z,17.05
2017-04-04T15:51:13.546Z,17.01
2017-04-04T15:52:28.391Z,17.05
2017-04-04T15:53:47.326Z,17.07
2017-04-04T15:55:01.746Z,17.05
2017-04-04T15:56:16.251Z,17.17
2017-04-04T15:57:31.995Z,17.07
2017-04-04T15:58:47.690Z,17.05
2017-04-04T16:00:05.838Z,17.1
2017-04-04T16:01:22.595Z,17.19
2017-04-04T16:02:37.049Z,17.09
2017-04-04T16:03:56.648Z,17.07
2017-04-04T16:05:11.502Z,17.16
2017-04-04T16:06:25.513Z,17.17
2017-04-04T16:07:40.582Z,17.14
2017-04-04T16:08:57.627Z,17.14
2017-04-04T16:10:11.917Z,17.05
2017-04-04T16:11:27.081Z,17.05
2017-04-04T16:12:42.660Z,16.87
2017-04-04T16:13:57.295Z,17.04